Cedar Lane, Texas
Current Conditions -  °F | °C
As of 9:53 PM on Wednesday 17 Dec 2014 (Local Time) from KLBX Reporting Station
Broken Clouds Broken Clouds  
Wind Chill: 66°   Ceiling: 5500
Heat Index: 66°   Visibility: 10mi
Dew Point: 63°   Wind: 9mph
Humidity: 90%   Direction: 120°ESE
Pressure: 30.09"   Gusts: NA
Location:  28.94°N, 95.74°W
Report Text: KLBX 180353Z AUTO 12008KT 10SM FEW023 SCT034 BKN055 19/17 A3009 RMK AO2 SLP188 T01890172
Loading
Personal Weather Stations






























Interactive Weather Map New forecast layout! Learn more

10-Day Weather Forecast

Advertisements
Track Severe Weather on mobile